KCNM

Cavern City Air Trml Airport

Carlsbad, New Mexico, USA
KCNM 182322Z 1900/1924 31028G37KT P6SM SCT100 FM190800 31015G22KT P6SM SCT100 BKN250 FM191200 29007KT P6SM SKC
Issued Valid From Valid To
Jan-18 @ 23:22 UTC
(3 hours ago)
Jan-19 @ 00:00 UTC
(2 hours ago)
Jan-20 @ 00:00 UTC
(in 22 hours)
Jan-19 @ 00:00 to Jan-19 @ 08:00
KCNM 182322Z 1900/1924 31028G37KT P6SM SCT100
Wind Visibility Clouds
310° at 28 knots
 Gusting to 37 knots
Greater than 6 miles
  • Scattered at 10,000' AGL
From Jan-19 @ 08:00 to Jan-19 @ 12:00
FM190800 31015G22KT P6SM SCT100 BKN250
Wind Visibility Clouds
310° at 15 knots
 Gusting to 22 knots
Greater than 6 miles
  • Scattered at 10,000' AGL
  • Broken at 25,000' AGL
From Jan-19 @ 12:00 to Jan-20 @ 00:00
FM191200 29007KT P6SM SKC
Wind Visibility Clouds
290° at 7 knots Greater than 6 miles
  • Clear skies
KCNM 182322Z 1900/1924 31028G37KT P6SM SCT100 FM190800 31015G22KT P6SM SCT100 BKN250 FM191200 29007KT P6SM SKC
Issued Jan-18 @ 23:22 UTC
(3 hours ago)
Valid From Jan-19 @ 00:00 UTC
(2 hours ago)
Valid To Jan-20 @ 00:00 UTC
(in 22 hours)
Jan-19 @ 00:00 - Jan-19 @ 08:00
Wind Visibility
310° at 28 knots
 Gusting to 37 knots
Greater than 6 miles
Clouds
  • Scattered at 10,000' AGL
From Jan-19 @ 08:00 - Jan-19 @ 12:00
Wind Visibility
310° at 15 knots
 Gusting to 22 knots
Greater than 6 miles
Clouds
  • Scattered at 10,000' AGL
  • Broken at 25,000' AGL
From Jan-19 @ 12:00 - Jan-20 @ 00:00
Wind Visibility
290° at 7 knots Greater than 6 miles
Clouds
  • Clear skies